Terminal Aerodrome Forecast
Issued by NWS

Home | Current Version | Previous Version | Text Only | Print | Product List | Glossary On
Versions: 1 2 3 4 5 6 7 8 9 10 11 12 13 14 15 16 17
000
FTUS42 KTBW 180820 AAB
TAFPIE
TAF AMD
KPIE 180820Z 1808/1906 VRB03KT 4SM BR FEW050
      TEMPO 1808/1812 1SM BR
     FM181400 18006KT P6SM SCT030 SCT250
     FM181700 24007KT P6SM SCT040 SCT250
     FM190000 30005KT P6SM FEW050 SCT250=

USA.gov is the U.S. government's official web portal to all federal, state and local government web resources and services.